Terminal Aerodrome Forecast
Issued by NWS

Home | Current Version | Previous Version | Text Only | Print | Product List | Glossary Off
Versions: 1 2 3 4 5 6 7 8 9 10 11 12 13

000
FTUS43 KICT 252328
TAFSLN
TAF
KSLN 252328Z 2600/2624 19009KT P6SM BKN080
     FM260700 26012KT P6SM OVC070
      TEMPO 2607/2609 P6SM -RASN OVC050
     FM260900 31015G22KT P6SM OVC080
     FM261400 33021G31KT P6SM SCT100=

USA.gov is the U.S. government's official web portal to all federal, state and local government web resources and services.